Time;durP1;ratioP1;P1;durP2;ratioP2;P2;SDS_P1;SDS_P2;PMS_P1;PMS_P2;Temp;Humidity;BMP_temperature;BMP_pressure;BME280_temperature;BME280_humidity;BME280_pressure;Samples;Min_cycle;Max_cycle;Signal;HPM_P1;HPM_P2
2021/05/19 00:02:14;;;;;;;54.35;35.47;;;;;;;-150.07;47.16;62110.69;5022887;28;20472;-90
2021/05/19 00:04:44;;;;;;;53.50;34.55;;;;;;;-150.07;47.77;62527.19;4936367;28;2612742;-90
2021/05/19 00:07:10;;;;;;;49.10;32.00;;;;;;;-150.07;47.37;61641.91;5009543;28;20034;-93
2021/05/19 00:09:37;;;;;;;46.80;31.25;;;;;;;-150.07;46.43;63496.41;5019290;28;20026;-92
2021/05/19 00:14:40;;;;;;;49.45;33.75;;;;;;;-150.07;47.19;62621.38;5028646;23;20534;-94
2021/05/19 00:17:07;;;;;;;45.47;31.98;;;;;;;-150.07;46.89;62679.97;5003604;28;20035;-94
2021/05/19 00:19:34;;;;;;;50.10;31.65;;;;;;;-150.07;47.09;62416.25;4986424;28;20030;-92
2021/05/19 00:22:01;;;;;;;44.75;32.40;;;;;;;-150.07;46.95;61932.78;4987024;28;20089;-93
2021/05/19 00:24:29;;;;;;;50.95;33.67;;;;;;;-150.07;47.32;62836.97;4984745;28;20032;-95
2021/05/19 00:26:58;;;;;;;52.85;37.92;;;;;;;-150.07;47.02;62424.63;4969045;28;20035;-93
2021/05/19 00:29:24;;;;;;;50.35;33.30;;;;;;;-150.07;46.77;62803.47;4985028;28;20034;-94
2021/05/19 00:31:53;;;;;;;49.15;32.95;;;;;;;-150.07;46.89;62504.16;4985556;28;20090;-92
2021/05/19 00:34:21;;;;;;;50.13;36.95;;;;;;;-150.07;46.60;62422.53;5006163;28;20087;-91
2021/05/19 00:36:49;;;;;;;49.00;34.85;;;;;;;-150.07;46.17;62282.31;4999015;28;20007;-94
2021/05/19 00:39:18;;;;;;;54.17;36.38;;;;;;;-150.07;46.67;62393.22;5005803;28;20026;-93
2021/05/19 00:41:45;;;;;;;49.42;35.17;;;;;;;-150.07;46.74;63326.81;4994230;28;20014;-93
2021/05/19 00:44:16;;;;;;;55.83;37.30;;;;;;;-150.07;45.91;62209.03;4979637;28;20074;-95
2021/05/19 00:46:48;;;;;;;46.50;32.72;;;;;;;-150.07;46.64;62389.03;4981155;28;20066;-91
2021/05/19 00:49:16;;;;;;;48.53;34.50;;;;;;;-150.07;45.64;62732.31;5008438;28;20046;-94
2021/05/19 00:51:43;;;;;;;49.15;33.15;;;;;;;-150.07;45.27;62033.25;4995163;28;20038;-94
2021/05/19 00:54:10;;;;;;;45.60;34.10;;;;;;;-150.07;45.04;63827.19;5016231;28;20014;-94
2021/05/19 00:56:37;;;;;;;55.20;34.30;;;;;;;-150.07;43.53;62832.78;5013343;28;20444;-87
2021/05/19 00:59:05;;;;;;;55.25;32.40;;;;;;;-150.07;43.46;62621.38;5002160;28;20022;-82
2021/05/19 01:01:36;;;;;;;48.35;34.30;;;;;;;-150.07;43.43;62772.09;4997391;28;20509;-86
2021/05/19 01:04:04;;;;;;;50.88;34.03;;;;;;;-150.07;43.48;62851.63;4975247;28;20046;-83
2021/05/19 01:11:55;;;;;;;47.40;31.40;;;;;;;-150.07;42.99;62939.53;5000899;28;20060;-88
2021/05/19 01:14:22;;;;;;;48.90;32.70;;;;;;;-150.07;43.43;62987.69;4994632;28;20124;-88
2021/05/19 01:16:49;;;;;;;46.42;32.15;;;;;;;-150.07;42.41;62824.41;4979544;28;20027;-87
2021/05/19 01:19:21;;;;;;;39.50;28.58;;;;;;;-150.07;41.84;63040.03;4989805;28;20026;-87
2021/05/19 01:21:50;;;;;;;46.10;30.65;;;;;;;-150.07;42.66;63002.34;4973078;28;20513;-86
2021/05/19 01:24:17;;;;;;;45.87;31.30;;;;;;;-150.07;42.03;62956.28;4959812;28;20027;-87
2021/05/19 01:26:44;;;;;;;47.63;31.80;;;;;;;-150.07;42.36;63083.97;4992656;28;20030;-85
2021/05/19 01:29:11;;;;;;;54.75;37.15;;;;;;;-150.07;45.21;62851.63;4980811;28;20050;-87
2021/05/19 01:31:38;;;;;;;50.28;34.53;;;;;;;-150.07;44.75;62872.56;4982610;28;20057;-84
2021/05/19 01:34:05;;;;;;;51.17;35.72;;;;;;;-150.07;44.20;62738.59;5002769;28;20022;-94
2021/05/19 01:36:33;;;;;;;46.58;34.83;;;;;;;-150.07;43.87;62857.91;4988519;28;20496;-89
2021/05/19 01:39:00;;;;;;;48.85;33.75;;;;;;;-150.07;44.09;63973.78;4980426;28;20035;-87
2021/05/19 01:41:27;;;;;;;48.97;34.05;;;;;;;-150.07;42.90;62910.25;4992424;28;20121;-90
2021/05/19 01:43:54;;;;;;;45.97;33.05;;;;;;;-150.07;43.58;62939.53;4987053;28;20022;-84
2021/05/19 01:46:21;;;;;;;48.70;31.42;;;;;;;-150.07;43.22;62843.25;4991443;28;20038;-83
2021/05/19 01:48:56;;;;;;;47.00;31.80;;;;;;;-150.07;41.74;63023.28;4999618;28;20026;-82
2021/05/19 01:51:23;;;;;;;59.83;31.45;;;;;;;-150.07;41.55;63048.41;4977670;28;20118;-83
2021/05/19 01:53:50;;;;;;;53.63;34.33;;;;;;;-150.07;43.45;62853.72;4993730;28;20147;-83
2021/05/19 01:56:17;;;;;;;56.38;36.67;;;;;;;-150.07;44.21;63571.78;4991843;28;20116;-83
2021/05/19 01:58:44;;;;;;;72.45;43.50;;;;;;;-150.07;45.83;62713.47;4992262;28;20131;-81
2021/05/19 02:01:11;;;;;;;55.28;41.22;;;;;;;-150.07;47.32;62715.56;4991737;28;20030;-83
2021/05/19 02:03:38;;;;;;;59.78;42.50;;;;;;;-150.07;47.62;62512.53;4993554;28;20023;-83
2021/05/19 02:06:05;;;;;;;52.35;42.53;;;;;;;-150.07;47.77;62617.19;4993407;28;20030;-83
2021/05/19 02:08:32;;;;;;;54.17;41.90;;;;;;;-150.07;47.74;63437.78;4993116;28;20492;-84
2021/05/19 02:10:59;;;;;;;58.55;44.85;;;;;;;-150.07;48.66;62407.88;4976981;28;20466;-85
2021/05/19 02:13:26;;;;;;;56.88;48.15;;;;;;;-150.07;49.26;62552.31;4979266;28;20057;-84
2021/05/19 02:15:53;;;;;;;64.90;47.80;;;;;;;-150.07;48.46;62409.97;5012533;28;20034;-83
2021/05/19 02:18:20;;;;;;;60.45;47.00;;;;;;;-150.07;49.32;62583.69;5012456;28;20018;-84
2021/05/19 02:20:46;;;;;;;62.58;48.47;;;;;;;-150.07;50.08;62370.19;5011632;28;20053;-83
2021/05/19 02:23:13;;;;;;;60.75;45.45;;;;;;;-150.07;49.29;62579.50;5012752;28;20053;-83
2021/05/19 02:25:40;;;;;;;56.55;42.38;;;;;;;-150.07;47.65;63841.84;5012519;28;20026;-84
2021/05/19 02:28:07;;;;;;;59.90;40.92;;;;;;;-150.07;48.10;62405.78;4995063;28;20026;-83
2021/05/19 02:30:35;;;;;;;57.83;42.33;;;;;;;-150.07;47.68;62659.03;5011707;28;20030;-82
2021/05/19 02:33:12;;;;;;;54.08;37.10;;;;;;;-150.07;45.93;62753.25;5012364;28;20022;-82
2021/05/19 02:35:39;;;;;;;45.47;34.58;;;;;;;-150.07;45.52;62499.97;4993905;28;20064;-82
2021/05/19 02:38:06;;;;;;;47.33;34.60;;;;;;;-150.07;44.36;62623.47;5012405;28;20720;-84
2021/05/19 02:40:33;;;;;;;46.13;34.35;;;;;;;-150.07;43.92;63303.78;5002433;28;20033;-82
2021/05/19 02:42:59;;;;;;;48.55;33.00;;;;;;;-150.07;43.57;62688.34;5012391;28;20097;-83
2021/05/19 02:45:26;;;;;;;44.63;32.35;;;;;;;-150.07;44.22;63557.13;4975800;28;20026;-82
2021/05/19 02:47:53;;;;;;;46.30;30.33;;;;;;;-150.07;43.91;62897.69;4994745;28;20027;-83
2021/05/19 02:50:20;;;;;;;46.20;30.80;;;;;;;-150.07;42.54;62659.03;4978288;28;20121;-83
2021/05/19 02:52:48;;;;;;;51.50;31.67;;;;;;;-150.07;43.33;62855.81;5014141;28;20026;-84
2021/05/19 02:55:15;;;;;;;46.95;30.95;;;;;;;-150.07;43.02;62931.16;4998372;28;20026;-84
2021/05/19 02:57:42;;;;;;;47.20;34.05;;;;;;;-150.07;42.95;63299.59;4998461;28;20041;-87
2021/05/19 03:00:09;;;;;;;49.67;34.38;;;;;;;-150.07;43.49;62855.81;5000078;28;20026;-85
2021/05/19 03:02:36;;;;;;;52.58;33.45;;;;;;;-150.07;44.43;62412.06;5017590;28;20087;-82
2021/05/19 03:05:05;;;;;;;47.38;34.92;;;;;;;-150.07;44.98;62654.88;5014786;28;20037;-83
2021/05/19 03:07:32;;;;;;;53.42;33.30;;;;;;;-150.07;45.05;62717.66;4995565;28;20021;-84
2021/05/19 03:09:58;;;;;;;50.53;39.13;;;;;;;-150.07;44.62;62606.72;4981199;28;20022;-84
2021/05/19 03:12:25;;;;;;;54.97;37.88;;;;;;;-150.07;45.11;62424.63;5006536;28;20025;-85
2021/05/19 03:14:52;;;;;;;55.15;39.67;;;;;;;-150.07;45.33;62709.28;5029682;28;20045;-85
2021/05/19 03:17:19;;;;;;;51.35;36.03;;;;;;;-150.07;44.80;62659.03;5014488;28;20064;-83
2021/05/19 03:19:46;;;;;;;59.70;36.78;;;;;;;-150.07;45.43;63741.34;5013810;28;20068;-84
2021/05/19 03:22:12;;;;;;;59.28;37.88;;;;;;;-150.07;44.81;63580.16;4996959;28;20105;-84
2021/05/19 03:24:39;;;;;;;53.72;35.92;;;;;;;-150.07;44.95;62196.50;5011614;28;20487;-83
2021/05/19 03:27:06;;;;;;;57.30;36.95;;;;;;;-150.07;44.99;63458.72;5010255;28;20103;-84
2021/05/19 03:29:33;;;;;;;59.08;40.30;;;;;;;-150.07;45.64;62409.97;5012637;28;20049;-83
2021/05/19 03:32:00;;;;;;;66.55;43.67;;;;;;;-150.07;46.22;62583.69;4994435;28;20432;-84
2021/05/19 03:34:27;;;;;;;54.80;42.60;;;;;;;-150.07;47.04;62531.38;4996604;28;20404;-84
2021/05/19 03:36:54;;;;;;;64.90;49.55;;;;;;;-150.07;48.04;62290.66;5010718;28;20030;-85
2021/05/19 03:39:21;;;;;;;57.70;47.85;;;;;;;-150.07;47.09;62359.75;5009691;28;20037;-84
2021/05/19 03:41:47;;;;;;;56.13;43.25;;;;;;;-150.07;48.09;62441.38;4993065;28;20065;-83
2021/05/19 03:44:14;;;;;;;58.90;45.45;;;;;;;-150.07;47.75;62527.19;4993673;28;20045;-84
2021/05/19 03:46:41;;;;;;;63.05;45.08;;;;;;;-150.07;46.41;62510.44;5010082;28;20112;-84
2021/05/19 03:49:08;;;;;;;56.33;42.83;;;;;;;-150.07;46.38;62529.28;5006503;28;20431;-82
2021/05/19 03:51:36;;;;;;;51.88;39.28;;;;;;;-150.07;45.29;62391.13;5011530;28;20033;-83
2021/05/19 03:54:04;;;;;;;53.67;37.33;;;;;;;-150.07;45.24;62520.91;5006411;28;20471;-84
2021/05/19 03:56:31;;;;;;;49.40;38.00;;;;;;;-150.07;44.75;62292.75;5001988;28;20029;-86
2021/05/19 03:58:59;;;;;;;53.45;35.75;;;;;;;-150.07;44.69;63651.31;4996891;28;20088;-85
2021/05/19 04:01:26;;;;;;;48.63;36.65;;;;;;;-150.07;44.73;62696.72;5003644;28;20030;-89
2021/05/19 04:03:53;;;;;;;48.50;38.17;;;;;;;-150.07;44.78;62566.94;5015108;28;20067;-86
2021/05/19 04:06:24;;;;;;;49.42;36.17;;;;;;;-150.07;45.00;62726.03;4997640;28;20030;-87
2021/05/19 04:08:57;;;;;;;47.33;36.60;;;;;;;-150.07;45.52;62749.06;5004790;28;20038;-86
2021/05/19 04:11:24;;;;;;;55.58;39.63;;;;;;;-150.07;45.70;62474.84;5010391;28;20535;-83
2021/05/19 04:13:51;;;;;;;47.97;40.90;;;;;;;-150.07;46.75;62520.91;4986494;28;20416;-88
2021/05/19 04:16:18;;;;;;;55.53;43.42;;;;;;;-150.07;46.97;62372.28;4959096;28;20038;-90
2021/05/19 04:18:45;;;;;;;56.58;44.75;;;;;;;-150.07;46.90;62763.72;4988743;28;20023;-83
2021/05/19 04:21:12;;;;;;;56.17;45.75;;;;;;;-150.07;46.71;62617.19;4978298;28;20030;-87
2021/05/19 04:23:39;;;;;;;54.40;41.95;;;;;;;-150.07;45.72;63561.31;4977653;28;20034;-89
2021/05/19 04:26:08;;;;;;;49.03;40.65;;;;;;;-150.07;44.72;62529.28;4978286;28;20031;-89
2021/05/19 04:28:36;;;;;;;44.58;37.00;;;;;;;-150.07;45.38;62839.06;4981074;28;20039;-89
2021/05/19 04:31:04;;;;;;;55.60;38.67;;;;;;;-150.07;44.10;62566.94;4993187;28;20372;-90
2021/05/19 04:33:33;;;;;;;44.13;35.33;;;;;;;-150.07;44.03;62864.19;4980453;28;20376;-93
2021/05/19 04:36:00;;;;;;;51.22;37.90;;;;;;;-150.07;44.63;62636.03;4979262;28;20118;-91
2021/05/19 04:38:27;;;;;;;50.53;36.83;;;;;;;-150.07;44.21;63513.16;4980468;28;20041;-91
2021/05/19 04:40:54;;;;;;;53.13;40.17;;;;;;;-150.07;45.40;63768.56;4980503;28;20027;-91
2021/05/19 04:43:21;;;;;;;60.42;44.22;;;;;;;-150.07;46.18;62684.16;4980302;28;20122;-92
2021/05/19 04:45:47;;;;;;;58.53;45.15;;;;;;;-150.07;46.83;62345.09;4980851;28;20069;-90
2021/05/19 04:48:14;;;;;;;53.53;41.80;;;;;;;-150.07;46.78;62332.53;4983909;28;20031;-88
2021/05/19 04:50:42;;;;;;;62.70;40.70;;;;;;;-150.07;47.18;62428.81;4992332;28;20027;-88
2021/05/19 04:53:10;;;;;;;41.42;36.47;;;;;;;-150.07;46.61;62355.56;4995433;28;20030;-92
2021/05/19 04:55:38;;;;;;;56.50;38.45;;;;;;;-150.07;45.98;62391.13;4987063;28;20038;-91
2021/05/19 04:58:06;;;;;;;54.28;36.75;;;;;;;-150.07;46.68;62403.69;4988876;28;20018;-89
2021/05/19 05:00:36;;;;;;;52.58;38.75;;;;;;;-150.07;47.33;62548.13;4985410;28;20030;-90
2021/05/19 05:03:03;;;;;;;46.92;35.60;;;;;;;-150.07;46.71;62236.25;4984304;28;20011;-89
2021/05/19 05:05:30;;;;;;;44.85;32.03;;;;;;;-150.07;45.78;62349.28;4981065;28;20492;-88
2021/05/19 05:07:57;;;;;;;45.97;32.40;;;;;;;-150.07;46.61;62558.56;4989179;28;20018;-88
2021/05/19 05:10:23;;;;;;;45.55;36.67;;;;;;;-150.07;47.76;62294.84;5000609;28;20033;-88
2021/05/19 05:12:50;;;;;;;46.83;35.83;;;;;;;-150.07;48.41;62227.88;5000306;28;20140;-88
2021/05/19 05:15:18;;;;;;;54.33;37.15;;;;;;;-150.07;48.81;62420.44;5000531;28;20061;-88
2021/05/19 05:17:45;;;;;;;50.72;37.50;;;;;;;-150.07;50.09;62370.19;5004013;28;20019;-88
2021/05/19 05:20:13;;;;;;;51.40;39.75;;;;;;;-150.07;50.97;62430.91;4981027;28;20096;-89
2021/05/19 05:22:40;;;;;;;51.97;40.55;;;;;;;-150.07;52.05;62045.81;4980605;28;20084;-88
2021/05/19 05:25:08;;;;;;;46.70;38.58;;;;;;;-150.07;51.67;61855.34;4982081;28;20502;-89
2021/05/19 05:27:35;;;;;;;43.80;35.83;;;;;;;-150.07;50.88;63421.03;4980040;28;20711;-88
2021/05/19 05:30:03;;;;;;;44.15;36.03;;;;;;;-150.07;51.07;62284.38;4984922;28;20030;-87
2021/05/19 05:32:30;;;;;;;39.92;31.10;;;;;;;-150.07;50.79;63655.50;4983263;28;20038;-88
2021/05/19 05:34:57;;;;;;;46.88;31.20;;;;;;;-150.07;49.59;62489.50;4985805;28;20042;-87
2021/05/19 05:37:24;;;;;;;41.85;30.50;;;;;;;-150.07;48.75;62453.94;4989527;28;20031;-90
2021/05/19 05:39:51;;;;;;;41.97;29.48;;;;;;;-150.07;46.63;62548.13;4988581;28;20037;-86
2021/05/19 05:42:18;;;;;;;44.63;31.52;;;;;;;-150.07;46.50;62600.44;5005384;28;20106;-85
2021/05/19 05:44:45;;;;;;;40.33;26.25;;;;;;;-150.07;45.91;62313.69;4997235;28;20061;-88
2021/05/19 05:47:12;;;;;;;38.90;27.02;;;;;;;-150.07;44.90;63287.03;4997646;28;20045;-88
2021/05/19 05:49:40;;;;;;;31.90;23.55;;;;;;;-150.07;44.69;62416.25;5010580;28;20038;-89
2021/05/19 05:52:07;;;;;;;39.20;25.05;;;;;;;-150.07;44.98;62707.19;5017155;28;20021;-88
2021/05/19 05:54:34;;;;;;;36.03;25.40;;;;;;;-150.07;45.21;63848.13;4987948;28;20031;-86
2021/05/19 05:57:01;;;;;;;42.50;27.15;;;;;;;-150.07;44.28;63659.69;4984567;28;20101;-86
2021/05/19 05:59:28;;;;;;;41.65;28.63;;;;;;;-150.07;46.02;62353.47;4989051;28;20061;-89
2021/05/19 06:01:55;;;;;;;36.90;25.98;;;;;;;-150.07;44.66;62671.59;5001712;28;20022;-87
2021/05/19 06:04:22;;;;;;;42.22;23.45;;;;;;;-150.07;44.11;62167.19;4990255;28;20026;-89
2021/05/19 06:06:52;;;;;;;39.00;27.75;;;;;;;-150.07;44.47;63645.03;4985476;28;20033;-87
2021/05/19 06:09:19;;;;;;;38.70;24.92;;;;;;;-150.07;45.13;62780.44;5003196;28;20060;-89
2021/05/19 06:11:46;;;;;;;43.40;25.85;;;;;;;-150.07;44.25;62571.13;4995923;28;20487;-85
2021/05/19 06:14:15;;;;;;;37.08;26.35;;;;;;;-150.07;43.85;62696.72;4990592;28;20435;-82
2021/05/19 06:16:42;;;;;;;33.65;24.63;;;;;;;-150.07;44.41;62826.50;4997796;28;20022;-82
2021/05/19 06:19:09;;;;;;;42.75;24.58;;;;;;;-150.07;43.57;62843.25;5002529;28;20015;-89
2021/05/19 06:21:36;;;;;;;35.05;23.33;;;;;;;-150.07;42.84;62416.25;4976436;28;20135;-81
2021/05/19 06:24:03;;;;;;;31.05;22.85;;;;;;;-150.07;42.30;62696.72;4993221;28;20034;-83
2021/05/19 06:26:30;;;;;;;32.45;25.02;;;;;;;-150.07;43.33;62675.78;4980141;28;20026;-78
2021/05/19 06:28:57;;;;;;;33.97;24.90;;;;;;;-150.07;43.58;63973.78;4991904;28;20113;-85
2021/05/19 06:31:24;;;;;;;33.38;25.95;;;;;;;-150.07;43.27;63833.47;4981027;28;20502;-91
2021/05/19 06:33:51;;;;;;;33.85;23.90;;;;;;;-150.07;43.33;63921.41;4994204;28;20491;-86
2021/05/19 06:36:18;;;;;;;38.60;26.08;;;;;;;-150.07;41.77;63783.22;4991623;28;20093;-87
2021/05/19 06:38:45;;;;;;;38.13;25.08;;;;;;;-150.07;41.74;62407.88;4998443;28;20038;-86
2021/05/19 06:41:12;;;;;;;38.75;26.58;;;;;;;-150.07;42.28;62569.03;4980968;28;20046;-87
2021/05/19 06:43:39;;;;;;;30.65;23.00;;;;;;;-150.07;41.72;62719.75;4980445;28;20144;-86
2021/05/19 06:46:06;;;;;;;35.75;22.13;;;;;;;-150.07;41.78;63450.34;5001602;28;20025;-86
2021/05/19 06:48:33;;;;;;;31.67;22.55;;;;;;;-150.07;42.54;62707.19;4989703;28;20034;-86
2021/05/19 06:51:01;;;;;;;29.10;19.55;;;;;;;-150.07;40.32;62571.13;4978884;28;20041;-87
2021/05/19 06:53:27;;;;;;;26.35;16.42;;;;;;;-150.07;39.24;63098.63;4979162;28;20046;-87
2021/05/19 06:55:56;;;;;;;21.40;13.52;;;;;;;-150.07;35.40;64001.00;4999838;28;20036;-89
2021/05/19 06:58:23;;;;;;;20.92;13.15;;;;;;;-150.07;33.75;62797.19;4983008;28;20060;-88
2021/05/19 07:00:50;;;;;;;20.23;14.07;;;;;;;-150.07;33.33;64128.72;4982176;28;20022;-87
2021/05/19 07:03:17;;;;;;;22.80;12.63;;;;;;;-150.07;32.31;63241.00;4988238;28;20030;-89
2021/05/19 07:05:44;;;;;;;23.35;12.77;;;;;;;-150.07;32.41;62993.97;4979790;28;20033;-90
2021/05/19 07:08:11;;;;;;;24.77;13.02;;;;;;;-150.07;33.03;64076.38;4998189;28;20018;-91
2021/05/19 07:10:38;;;;;;;22.10;11.73;;;;;;;-150.07;33.10;63086.06;5004585;28;20030;-83
2021/05/19 07:13:05;;;;;;;28.63;14.55;;;;;;;-150.07;32.85;64321.38;5011383;28;20400;-86
2021/05/19 07:15:35;;;;;;;26.48;13.25;;;;;;;-150.07;33.73;62945.81;4978577;28;20026;-87
2021/05/19 07:18:07;;;;;;;25.02;12.82;;;;;;;-150.07;34.08;63387.53;4975754;28;20042;-85
2021/05/19 07:20:34;;;;;;;26.05;15.52;;;;;;;-150.07;34.28;63370.78;4976431;28;20030;-84
2021/05/19 07:23:01;;;;;;;22.30;13.30;;;;;;;-150.07;34.24;63490.13;4975735;28;20030;-84
2021/05/19 07:25:28;;;;;;;24.55;14.48;;;;;;;-150.07;34.51;63123.75;4976614;28;20112;-85
2021/05/19 07:27:55;;;;;;;27.98;15.18;;;;;;;-150.07;35.83;64614.53;4975998;28;20037;-85
2021/05/19 07:30:22;;;;;;;30.60;16.65;;;;;;;-150.07;38.27;62834.88;4975238;28;20042;-88
2021/05/19 07:32:49;;;;;;;29.90;17.55;;;;;;;-150.07;38.13;64576.84;4971971;28;20050;-85
2021/05/19 07:35:16;;;;;;;30.85;18.25;;;;;;;-150.07;39.97;62828.59;4984631;28;20034;-86
2021/05/19 07:37:43;;;;;;;32.38;19.30;;;;;;;-150.07;40.68;62947.91;4976159;28;20097;-87
2021/05/19 07:40:11;;;;;;;30.05;19.00;;;;;;;-150.07;40.69;63940.25;4977008;28;20084;-86
2021/05/19 07:42:38;;;;;;;27.75;16.83;;;;;;;-150.07;40.62;63213.78;4978378;28;20026;-90
2021/05/19 07:45:06;;;;;;;26.90;18.77;;;;;;;-150.07;41.20;64377.91;4981003;28;20077;-92
2021/05/19 07:47:33;;;;;;;36.25;19.20;;;;;;;-150.07;41.15;62786.72;4977116;28;20377;-84
2021/05/19 07:50:00;;;;;;;28.80;18.45;;;;;;;-150.07;41.46;63014.91;4978279;28;20031;-88
2021/05/19 07:52:27;;;;;;;33.25;20.13;;;;;;;-150.07;41.26;62449.75;5002670;28;20507;-85
2021/05/19 07:54:59;;;;;;;36.00;20.98;;;;;;;-150.07;41.56;62525.09;5002299;28;20480;-87
2021/05/19 07:57:38;;;;;;;33.53;19.08;;;;;;;-150.07;41.41;62487.41;4977855;28;20069;-83
2021/05/19 08:00:11;;;;;;;36.58;22.15;;;;;;;-150.07;41.87;63408.47;4983053;28;20125;-92
2021/05/19 08:02:42;;;;;;;32.17;20.73;;;;;;;-150.07;41.69;62294.84;4986586;28;20121;-92
2021/05/19 08:05:11;;;;;;;32.42;21.70;;;;;;;-150.07;42.56;64051.25;4987703;28;20029;-87
2021/05/19 08:07:47;;;;;;;29.93;22.07;;;;;;;-150.07;43.53;62897.69;4984004;28;20102;-94
2021/05/19 08:10:17;;;;;;;26.80;22.25;;;;;;;-150.07;45.44;61926.50;4992789;28;20034;-91
2021/05/19 08:12:44;;;;;;;31.65;25.15;;;;;;;-150.07;45.01;61788.38;4999626;28;20038;-89
2021/05/19 08:15:11;;;;;;;31.50;23.75;;;;;;;-150.07;44.98;63885.81;4984332;28;20054;-91
2021/05/19 08:17:39;;;;;;;29.80;23.08;;;;;;;-150.07;44.33;62349.28;4967511;28;20094;-93
2021/05/19 08:20:07;;;;;;;31.75;23.88;;;;;;;-150.07;43.66;62960.47;4964647;28;20132;-92
2021/05/19 08:22:34;;;;;;;34.78;24.20;;;;;;;-150.07;43.77;62550.22;4967538;28;20113;-92
2021/05/19 08:25:01;;;;;;;33.22;22.15;;;;;;;-150.07;43.88;63054.69;4996427;28;20077;-93
2021/05/19 08:27:28;;;;;;;32.38;22.55;;;;;;;-150.07;43.30;62973.03;4987834;28;20030;-92
2021/05/19 08:29:58;;;;;;;30.77;19.48;;;;;;;-150.07;43.52;63031.66;4973396;28;20081;-93
2021/05/19 08:32:27;;;;;;;;;;;;;;;-150.07;42.64;63230.53;4989179;28;20030;-93
2021/05/19 08:34:56;;;;;;;32.72;20.90;;;;;;;-150.07;41.64;64195.72;4991974;28;19913;-92
2021/05/19 08:37:23;;;;;;;32.43;18.70;;;;;;;-150.07;40.71;61907.69;4974042;28;20039;-87
2021/05/19 08:39:50;;;;;;;25.55;17.55;;;;;;;-150.07;40.94;62621.38;4996817;28;20041;-82
2021/05/19 08:42:17;;;;;;;32.97;21.73;;;;;;;-150.07;41.16;63150.97;4979744;28;20099;-86
2021/05/19 08:44:44;;;;;;;31.58;17.83;;;;;;;-150.07;40.11;62855.81;4979391;28;20015;-89
2021/05/19 08:47:11;;;;;;;32.05;17.00;;;;;;;-150.07;39.53;62594.16;4979772;28;20064;-86
2021/05/19 08:49:44;;;;;;;27.20;16.40;;;;;;;-150.07;40.14;62960.47;4982500;28;20495;-87
2021/05/19 08:52:11;;;;;;;34.65;19.27;;;;;;;-150.07;39.69;62943.72;4998722;28;20022;-83
2021/05/19 08:54:38;;;;;;;30.63;19.23;;;;;;;-150.07;38.62;62874.66;4997632;28;20246;-84
2021/05/19 08:57:06;;;;;;;26.65;16.95;;;;;;;-150.07;38.52;62740.69;4982118;28;20037;-85
2021/05/19 08:59:32;;;;;;;30.17;17.17;;;;;;;-150.07;39.44;63037.94;4994839;28;20079;-83
2021/05/19 09:02:10;;;;;;;28.45;16.98;;;;;;;-150.07;38.82;63075.59;4994103;28;20030;-83
2021/05/19 09:04:37;;;;;;;27.00;15.00;;;;;;;-150.07;37.47;63075.59;4980489;28;20026;-81
2021/05/19 09:07:05;;;;;;;29.90;19.40;;;;;;;-150.07;37.79;62776.28;4975432;28;20021;-81
2021/05/19 09:09:36;;;;;;;28.75;16.88;;;;;;;-150.07;37.07;63063.06;4977248;28;20038;-81
2021/05/19 09:12:10;;;;;;;28.80;16.25;;;;;;;-150.07;37.81;63100.72;4973488;28;20050;-82
2021/05/19 09:14:42;;;;;;;32.55;18.95;;;;;;;-150.07;38.11;63058.88;4977240;28;20137;-83
2021/05/19 09:17:17;;;;;;;26.98;15.90;;;;;;;-150.07;38.19;63136.31;4981030;28;20470;-84
2021/05/19 09:19:44;;;;;;;26.65;16.35;;;;;;;-150.07;37.78;64197.81;4984760;28;20037;-83
2021/05/19 09:22:19;;;;;;;31.08;17.17;;;;;;;-150.07;38.65;62952.09;4981289;28;20027;-82
2021/05/19 09:24:48;;;;;;;28.92;16.13;;;;;;;-150.07;38.75;63324.72;4988175;28;20376;-82
2021/05/19 09:27:15;;;;;;;32.05;15.93;;;;;;;-150.07;38.96;62726.03;4994013;28;20022;-80
2021/05/19 09:29:52;;;;;;;24.95;14.15;;;;;;;-150.07;39.04;62962.56;4976779;28;20037;-80
2021/05/19 09:32:21;;;;;;;26.00;15.85;;;;;;;-150.07;39.67;62893.50;4999296;28;20084;-81
2021/05/19 09:34:52;;;;;;;31.52;16.92;;;;;;;-150.07;39.16;62979.31;5005357;28;20491;-80
2021/05/19 09:37:25;;;;;;;23.42;14.75;;;;;;;-150.07;39.74;62874.66;5001877;28;20037;-82
2021/05/19 09:40:05;;;;;;;27.75;16.77;;;;;;;-150.07;40.22;62899.78;5000571;28;20373;-83
2021/05/19 09:42:39;;;;;;;35.88;17.90;;;;;;;-150.07;39.62;62939.53;4994500;28;20022;-79
2021/05/19 09:45:28;;;;;;;24.20;14.85;;;;;;;-150.07;39.29;62947.91;4980882;28;20499;-82
2021/05/19 09:47:56;;;;;;;23.75;15.02;;;;;;;-150.07;39.78;63081.88;4989981;28;20033;-84
2021/05/19 09:50:38;;;;;;;23.52;16.13;;;;;;;-150.07;40.59;62805.56;4994358;28;20037;-80
2021/05/19 09:53:13;;;;;;;29.77;17.70;;;;;;;-150.07;41.63;62958.38;4994772;28;20394;-81
2021/05/19 09:56:01;;;;;;;31.70;15.48;;;;;;;-150.07;41.69;62732.31;5009804;28;20105;-80
2021/05/19 09:58:32;;;;;;;32.05;18.50;;;;;;;-150.07;42.18;62860.00;5005777;28;20038;-78
2021/05/19 10:00:59;;;;;;;27.20;17.40;;;;;;;-150.07;42.30;63492.22;4997073;28;20057;-81
2021/05/19 10:03:26;;;;;;;30.13;18.23;;;;;;;-150.07;42.42;62834.88;5002992;28;20026;-81
2021/05/19 10:06:02;;;;;;;25.98;15.88;;;;;;;-150.07;40.95;62826.50;4998433;28;20050;-80
2021/05/19 10:08:29;;;;;;;29.10;16.20;;;;;;;-150.07;41.60;62499.97;4999450;28;20428;-80
2021/05/19 10:11:04;;;;;;;28.35;17.83;;;;;;;-150.07;41.18;62830.69;5008318;28;20022;-82
2021/05/19 10:13:33;;;;;;;32.10;17.50;;;;;;;-150.07;41.14;62721.84;5002027;28;20054;-81
2021/05/19 10:16:02;;;;;;;29.30;16.95;;;;;;;-150.07;40.36;62826.50;4981831;28;20029;-79
2021/05/19 10:18:34;;;;;;;30.85;18.90;;;;;;;-150.07;40.80;62433.00;4998924;28;20039;-88
2021/05/19 10:21:01;;;;;;;33.67;17.17;;;;;;;-150.07;40.66;63835.56;4998304;28;20039;-81
2021/05/19 10:23:38;;;;;;;32.83;16.15;;;;;;;-150.07;40.71;62776.28;4988153;28;20029;-81
2021/05/19 10:26:13;;;;;;;34.85;17.48;;;;;;;-150.07;40.20;62991.88;4993125;28;20034;-81
2021/05/19 10:28:47;;;;;;;34.17;16.65;;;;;;;-150.07;40.53;62784.63;4993594;28;20036;-81
2021/05/19 10:31:41;;;;;;;27.48;16.15;;;;;;;-150.07;40.98;62755.34;4991580;28;20034;-81
2021/05/19 10:34:08;;;;;;;31.40;16.38;;;;;;;-150.07;40.95;62744.88;4992349;28;20105;-80
2021/05/19 10:36:38;;;;;;;26.77;15.40;;;;;;;-150.07;41.10;62767.91;4993885;28;20550;-80
2021/05/19 10:39:11;;;;;;;29.90;15.90;;;;;;;-150.07;41.13;62726.03;4992259;28;20034;-80
2021/05/19 10:41:49;;;;;;;26.27;15.05;;;;;;;-150.07;40.61;62734.41;4991760;28;20304;-86
2021/05/19 10:44:21;;;;;;;28.55;13.98;;;;;;;-150.07;40.96;62525.09;4980258;28;20049;-82
2021/05/19 10:49:44;;;;;;;28.73;16.42;;;;;;;-150.07;40.36;62656.97;4974800;28;20097;-82
2021/05/19 10:58:56;;;;;;;30.75;17.15;;;;;;;-150.07;40.16;62481.13;4914433;29;20549;-81
2021/05/19 11:01:44;;;;;;;25.95;16.52;;;;;;;-150.07;40.24;62596.25;4948115;28;20055;-81
2021/05/19 11:04:17;;;;;;;36.08;20.45;;;;;;;-150.07;40.18;62613.00;4977880;28;20529;-82
2021/05/19 11:07:02;;;;;;;34.72;18.85;;;;;;;-150.07;40.07;62579.50;4974977;28;20097;-82
2021/05/19 11:09:36;;;;;;;42.60;22.42;;;;;;;-150.07;40.16;62581.59;4991639;28;20045;-82
2021/05/19 11:12:21;;;;;;;31.85;17.83;;;;;;;-150.07;40.72;62598.34;4975573;28;20034;-82
2021/05/19 11:17:35;;;;;;;28.35;16.23;;;;;;;-150.07;40.89;62613.00;5024342;28;20037;-91
2021/05/19 11:20:07;;;;;;;31.15;18.88;;;;;;;-150.07;40.79;62652.78;5023603;28;20030;-90
2021/05/19 11:22:36;;;;;;;31.17;17.20;;;;;;;-150.07;40.57;62583.69;5007596;28;20037;-91
2021/05/19 11:25:07;;;;;;;46.20;19.63;;;;;;;-150.07;40.20;63479.66;5006727;28;20103;-90
2021/05/19 11:27:37;;;;;;;25.02;16.63;;;;;;;-150.07;41.72;62384.84;5017981;28;20505;-89
2021/05/19 11:30:10;;;;;;;34.40;19.00;;;;;;;-150.07;40.81;62537.66;5038157;28;20121;-90